createdAt,value
2022-10-30T00:00:16.100Z,94.13
2022-10-30T00:02:42.385Z,94.23
2022-10-30T00:05:08.695Z,94.29
2022-10-30T00:07:34.942Z,94.39
2022-10-30T00:10:01.206Z,94.45
2022-10-30T00:12:27.463Z,94.43
2022-10-30T00:14:53.729Z,94.21
2022-10-30T00:17:19.990Z,94.39
2022-10-30T00:19:46.305Z,94.56
2022-10-30T00:22:12.565Z,94.31
2022-10-30T00:24:38.812Z,94.23
2022-10-30T00:27:05.099Z,94.07
2022-10-30T00:29:31.374Z,94.26
2022-10-30T00:31:57.629Z,94.33
2022-10-30T00:34:23.942Z,94.54
2022-10-30T00:36:50.187Z,94.59
2022-10-30T00:39:16.447Z,94.64
2022-10-30T00:41:42.792Z,94.38
2022-10-30T00:44:09.051Z,94.38
2022-10-30T00:46:35.312Z,94.48
2022-10-30T00:49:01.589Z,93.97
2022-10-30T00:51:27.833Z,94.01
2022-10-30T00:53:54.086Z,94.03
2022-10-30T00:56:20.345Z,94.26
2022-10-30T00:58:46.595Z,94.48
2022-10-30T01:01:12.944Z,94.88
2022-10-30T01:03:39.311Z,94.98
2022-10-30T01:06:05.571Z,95.06
2022-10-30T01:08:31.945Z,95.09
2022-10-30T01:10:58.331Z,95.30
2022-10-30T01:13:24.600Z,95.25
2022-10-30T01:15:50.854Z,95.25
2022-10-30T01:18:17.152Z,95.66
2022-10-30T01:20:43.393Z,95.27
2022-10-30T01:23:09.711Z,95.78
2022-10-30T01:25:35.966Z,95.64
2022-10-30T01:28:02.266Z,95.44
2022-10-30T01:30:28.515Z,95.95
2022-10-30T01:32:55.003Z,95.75
2022-10-30T01:35:21.582Z,95.76
2022-10-30T01:37:47.820Z,95.75
2022-10-30T01:40:14.373Z,95.87
2022-10-30T01:42:40.623Z,95.88
2022-10-30T01:45:06.878Z,95.91
2022-10-30T01:47:33.142Z,96.07
2022-10-30T01:49:59.411Z,95.88
2022-10-30T01:52:25.668Z,95.98
2022-10-30T01:54:51.933Z,96.00
2022-10-30T01:57:18.190Z,95.85
2022-10-30T01:59:44.458Z,95.77
2022-10-30T02:02:10.781Z,95.96
2022-10-30T02:04:37.131Z,96.50
2022-10-30T02:07:03.379Z,97.29
2022-10-30T02:09:29.624Z,96.75
2022-10-30T02:11:55.873Z,96.48
2022-10-30T02:14:22.121Z,96.58
2022-10-30T02:16:48.374Z,97.00
2022-10-30T02:19:14.625Z,97.05
2022-10-30T02:21:40.881Z,97.17
2022-10-30T02:24:07.142Z,97.23
2022-10-30T02:29:24.021Z,97.14
2022-10-30T02:31:50.359Z,97.45
2022-10-30T02:34:16.655Z,97.25
2022-10-30T02:36:42.910Z,97.41
2022-10-30T02:39:09.182Z,97.49
2022-10-30T02:41:35.453Z,97.40
2022-10-30T02:44:01.953Z,97.09
2022-10-30T02:46:28.225Z,97.43
2022-10-30T02:48:54.476Z,97.69
2022-10-30T02:51:20.741Z,97.67
2022-10-30T02:53:47.420Z,97.59
2022-10-30T02:56:13.745Z,97.41
2022-10-30T02:58:40.123Z,97.63
2022-10-30T03:01:06.811Z,97.44
2022-10-30T03:03:33.102Z,97.58
2022-10-30T03:05:59.402Z,97.09
2022-10-30T03:08:25.649Z,97.50
2022-10-30T03:10:51.968Z,97.07
2022-10-30T03:13:18.221Z,96.98
2022-10-30T03:15:44.502Z,96.99
2022-10-30T03:18:10.763Z,97.35
2022-10-30T03:20:37.063Z,97.08
2022-10-30T03:23:03.313Z,97.10
2022-10-30T03:25:29.590Z,97.12
2022-10-30T03:27:56.115Z,97.08
2022-10-30T03:30:22.718Z,97.09
2022-10-30T03:32:48.973Z,97.58
2022-10-30T03:35:15.285Z,97.37
2022-10-30T03:37:41.590Z,97.55
2022-10-30T03:40:07.873Z,97.44
2022-10-30T03:42:34.124Z,97.74
2022-10-30T03:45:00.394Z,97.58
2022-10-30T03:47:26.651Z,97.62
2022-10-30T03:49:52.916Z,97.14
2022-10-30T03:52:19.169Z,96.98
2022-10-30T03:54:45.430Z,97.07
2022-10-30T03:57:11.695Z,96.99
2022-10-30T03:59:37.962Z,96.88
2022-10-30T04:02:04.398Z,96.45
2022-10-30T04:04:30.770Z,96.57
2022-10-30T04:06:57.030Z,96.79
2022-10-30T04:09:23.291Z,97.03
2022-10-30T04:11:49.572Z,96.74
2022-10-30T04:14:15.830Z,96.59
2022-10-30T04:16:42.121Z,96.79
2022-10-30T04:19:08.402Z,96.89
2022-10-30T04:21:34.755Z,96.53
2022-10-30T04:24:01.037Z,96.45
2022-10-30T04:26:27.288Z,96.31
2022-10-30T04:28:53.546Z,96.99
2022-10-30T04:31:23.188Z,97.55
2022-10-30T04:33:49.434Z,97.51
2022-10-30T04:36:18.053Z,97.65
2022-10-30T04:38:44.323Z,97.57
2022-10-30T04:41:10.597Z,97.87
2022-10-30T04:43:36.871Z,97.94
2022-10-30T04:46:07.015Z,98.07
2022-10-30T04:48:34.953Z,98.26
2022-10-30T04:51:01.486Z,98.32
2022-10-30T04:53:27.772Z,98.47
2022-10-30T04:55:54.167Z,98.28
2022-10-30T04:58:20.423Z,97.98
2022-10-30T05:00:46.689Z,98.13
2022-10-30T05:03:13.061Z,98.58
2022-10-30T05:05:39.318Z,98.55
2022-10-30T05:08:05.573Z,98.44
2022-10-30T05:10:31.824Z,98.37
2022-10-30T05:12:59.959Z,98.43
2022-10-30T05:15:26.218Z,98.30
2022-10-30T05:17:53.246Z,98.24
2022-10-30T05:20:19.434Z,97.90
2022-10-30T05:22:45.716Z,98.03
2022-10-30T05:25:11.963Z,97.57
2022-10-30T05:27:38.209Z,97.46
2022-10-30T05:30:04.511Z,97.49
2022-10-30T05:32:30.800Z,97.80
2022-10-30T05:34:57.067Z,97.53
2022-10-30T05:37:23.528Z,97.58
2022-10-30T05:39:49.774Z,97.26
2022-10-30T05:42:16.494Z,96.89
2022-10-30T05:45:02.759Z,97.20
2022-10-30T05:47:29.002Z,97.29
2022-10-30T05:49:55.262Z,97.20
2022-10-30T05:52:21.555Z,97.52
2022-10-30T05:54:47.807Z,97.43
2022-10-30T05:57:14.069Z,97.00
2022-10-30T05:59:40.329Z,97.21
2022-10-30T06:02:06.746Z,97.17
2022-10-30T06:04:33.042Z,97.53
2022-10-30T06:06:59.314Z,97.25
2022-10-30T06:09:25.636Z,97.20
2022-10-30T06:11:51.890Z,97.34
2022-10-30T06:14:18.152Z,96.97
2022-10-30T06:16:44.405Z,96.86
2022-10-30T06:19:15.523Z,96.74
2022-10-30T06:21:45.240Z,97.00
2022-10-30T06:24:11.517Z,96.45
2022-10-30T06:26:37.769Z,96.39
2022-10-30T06:29:04.145Z,96.86
2022-10-30T06:31:30.407Z,96.51
2022-10-30T06:33:56.660Z,96.57
2022-10-30T06:36:22.935Z,96.28
2022-10-30T06:38:49.196Z,96.16
2022-10-30T06:41:15.454Z,95.44
2022-10-30T06:43:41.728Z,95.67
2022-10-30T06:48:39.163Z,94.94
2022-10-30T06:51:05.411Z,94.47
2022-10-30T06:53:31.680Z,94.54
2022-10-30T06:55:59.075Z,94.24
2022-10-30T06:58:25.419Z,93.56
2022-10-30T07:00:51.664Z,93.31
2022-10-30T07:03:17.916Z,92.92
2022-10-30T07:05:44.201Z,92.35
2022-10-30T07:08:10.452Z,92.99
2022-10-30T07:10:36.705Z,92.85
2022-10-30T07:13:03.013Z,92.96
2022-10-30T07:15:29.386Z,93.76
2022-10-30T07:17:55.980Z,93.14
2022-10-30T07:20:22.450Z,93.30
2022-10-30T07:22:48.887Z,93.21
2022-10-30T07:25:15.142Z,92.92
2022-10-30T07:27:41.421Z,93.06
2022-10-30T07:30:07.669Z,92.59
2022-10-30T07:32:33.917Z,92.65
2022-10-30T07:35:00.187Z,91.51
2022-10-30T07:37:26.435Z,90.57
2022-10-30T07:39:52.690Z,89.73
2022-10-30T07:42:18.946Z,89.29
2022-10-30T07:44:45.201Z,88.85
2022-10-30T07:47:11.481Z,89.80
2022-10-30T07:49:37.759Z,90.03
2022-10-30T07:52:04.335Z,90.24
2022-10-30T07:54:30.601Z,90.65
2022-10-30T07:56:58.291Z,90.43
2022-10-30T07:59:24.566Z,90.76
2022-10-30T08:01:51.051Z,90.66
2022-10-30T08:04:17.388Z,90.94
2022-10-30T08:06:46.970Z,90.75
2022-10-30T08:09:13.243Z,90.74
2022-10-30T08:11:39.531Z,90.02
2022-10-30T08:14:05.795Z,89.47
2022-10-30T08:16:32.061Z,89.69
2022-10-30T08:18:58.338Z,89.51
2022-10-30T08:21:24.594Z,89.68
2022-10-30T08:23:51.614Z,89.59
2022-10-30T08:26:17.800Z,89.43
2022-10-30T08:28:44.057Z,88.84
2022-10-30T08:31:19.347Z,88.99
2022-10-30T08:33:45.620Z,88.82
2022-10-30T08:36:11.908Z,87.94
2022-10-30T08:38:38.234Z,87.15
2022-10-30T08:41:04.523Z,86.72
2022-10-30T08:43:30.791Z,86.05
2022-10-30T08:45:57.065Z,85.66
2022-10-30T08:48:23.326Z,85.20
2022-10-30T08:50:49.580Z,84.80
2022-10-30T08:53:16.014Z,84.11
2022-10-30T08:55:42.261Z,83.45
2022-10-30T08:58:08.533Z,83.66
2022-10-30T09:00:35.556Z,82.81
2022-10-30T09:03:02.344Z,82.41
2022-10-30T09:05:28.994Z,81.51
2022-10-30T09:07:55.443Z,81.26
2022-10-30T09:10:22.132Z,81.32
2022-10-30T09:12:48.433Z,80.92
2022-10-30T09:15:14.689Z,80.12
2022-10-30T09:17:41.052Z,79.75
2022-10-30T09:20:07.323Z,79.74
2022-10-30T09:22:33.591Z,79.07
2022-10-30T09:24:59.871Z,79.07
2022-10-30T09:27:27.492Z,78.50
2022-10-30T09:29:53.759Z,78.42
2022-10-30T09:32:20.038Z,78.26
2022-10-30T09:34:46.345Z,78.09
2022-10-30T09:37:12.666Z,77.90
2022-10-30T09:39:38.961Z,77.70
2022-10-30T09:42:05.226Z,78.24
2022-10-30T09:44:31.496Z,78.09
2022-10-30T09:46:57.791Z,78.84
2022-10-30T09:49:24.057Z,77.93
2022-10-30T09:51:50.306Z,77.75
2022-10-30T09:54:16.599Z,76.96
2022-10-30T09:56:42.848Z,76.53
2022-10-30T09:59:09.164Z,76.04
2022-10-30T10:01:35.520Z,76.30
2022-10-30T10:04:02.128Z,75.92
2022-10-30T10:06:28.469Z,76.54
2022-10-30T10:08:54.736Z,76.91
2022-10-30T10:11:20.997Z,76.95
2022-10-30T10:13:47.262Z,76.74
2022-10-30T10:16:13.522Z,76.23
2022-10-30T10:18:39.786Z,75.54
2022-10-30T10:21:06.039Z,75.44
2022-10-30T10:23:32.331Z,74.25
2022-10-30T10:25:58.628Z,74.19
2022-10-30T10:31:18.081Z,73.49
2022-10-30T10:33:48.834Z,72.96
2022-10-30T10:36:17.550Z,73.32
2022-10-30T10:38:43.801Z,72.67
2022-10-30T10:41:10.130Z,73.50
2022-10-30T10:43:36.429Z,73.20
2022-10-30T10:46:02.689Z,73.00
2022-10-30T10:48:28.974Z,73.54
2022-10-30T10:50:55.253Z,72.42
2022-10-30T10:53:22.126Z,71.24
2022-10-30T10:55:48.693Z,71.21
2022-10-30T10:58:14.969Z,71.52
2022-10-30T11:00:41.236Z,72.08
2022-10-30T11:03:07.577Z,73.09
2022-10-30T11:05:34.758Z,73.57
2022-10-30T11:08:01.834Z,74.21
2022-10-30T11:10:28.214Z,73.05
2022-10-30T11:12:54.481Z,72.28
2022-10-30T11:15:20.795Z,72.30
2022-10-30T11:17:47.069Z,71.84
2022-10-30T11:20:13.329Z,72.30
2022-10-30T11:22:39.610Z,72.43
2022-10-30T11:25:06.120Z,71.67
2022-10-30T11:27:32.628Z,71.59
2022-10-30T11:29:58.911Z,71.85
2022-10-30T11:32:26.370Z,71.13
2022-10-30T11:34:52.679Z,71.10
2022-10-30T11:37:18.930Z,71.54
2022-10-30T11:39:45.210Z,71.20
2022-10-30T11:42:11.473Z,71.29
2022-10-30T11:44:37.815Z,71.51
2022-10-30T11:47:04.160Z,71.67
2022-10-30T11:49:30.437Z,70.17
2022-10-30T11:51:56.727Z,70.60
2022-10-30T11:54:23.045Z,70.68
2022-10-30T11:56:49.307Z,71.16
2022-10-30T11:59:15.575Z,70.40
2022-10-30T12:01:41.937Z,70.65
2022-10-30T12:04:08.275Z,70.93
2022-10-30T12:06:34.538Z,70.22
2022-10-30T12:09:00.839Z,69.82
2022-10-30T12:11:27.110Z,69.97
2022-10-30T12:13:53.374Z,69.89
2022-10-30T12:16:19.915Z,69.53
2022-10-30T12:18:46.197Z,69.78
2022-10-30T12:21:12.648Z,69.57
2022-10-30T12:23:38.904Z,69.60
2022-10-30T12:26:05.259Z,69.39
2022-10-30T12:28:31.596Z,70.47
2022-10-30T12:30:57.859Z,70.12
2022-10-30T12:33:24.126Z,69.67
2022-10-30T12:35:50.381Z,69.88
2022-10-30T12:38:16.673Z,69.54
2022-10-30T12:40:42.939Z,69.96
2022-10-30T12:43:09.202Z,70.07
2022-10-30T12:45:35.484Z,69.73
2022-10-30T12:48:02.219Z,69.28
2022-10-30T12:50:28.806Z,68.66
2022-10-30T12:52:55.071Z,68.84
2022-10-30T12:55:21.432Z,68.30
2022-10-30T12:57:47.695Z,68.26
2022-10-30T13:00:14.604Z,68.66
2022-10-30T13:02:40.817Z,68.37
2022-10-30T13:05:07.074Z,68.80
2022-10-30T13:07:33.338Z,67.98
2022-10-30T13:09:59.606Z,68.07
2022-10-30T13:12:25.860Z,67.79
2022-10-30T13:14:52.137Z,68.49
2022-10-30T13:17:18.391Z,68.41
2022-10-30T13:19:44.661Z,68.31
2022-10-30T13:22:11.025Z,68.21
2022-10-30T13:24:37.294Z,68.33
2022-10-30T13:27:03.542Z,68.16
2022-10-30T13:29:30.306Z,68.08
2022-10-30T13:31:56.567Z,67.97
2022-10-30T13:34:22.948Z,68.26
2022-10-30T13:36:49.220Z,68.28
2022-10-30T13:39:15.534Z,68.74
2022-10-30T13:41:42.281Z,68.94
2022-10-30T13:44:08.561Z,68.64
2022-10-30T13:46:34.839Z,68.46
2022-10-30T13:49:01.134Z,68.36
2022-10-30T13:51:27.563Z,68.46
2022-10-30T13:53:53.834Z,68.54
2022-10-30T13:56:21.848Z,68.33
2022-10-30T13:58:48.116Z,68.77
2022-10-30T14:01:15.139Z,68.68
2022-10-30T14:06:33.499Z,69.04
2022-10-30T14:08:59.831Z,68.98
2022-10-30T14:11:26.129Z,68.96
2022-10-30T14:13:52.422Z,68.94
2022-10-30T14:16:18.688Z,69.53
2022-10-30T14:18:44.977Z,69.58
2022-10-30T14:21:11.240Z,70.12
2022-10-30T14:23:37.497Z,69.70
2022-10-30T14:26:06.559Z,70.23
2022-10-30T14:28:33.202Z,70.23
2022-10-30T14:30:59.461Z,70.59
2022-10-30T14:33:25.741Z,70.72
2022-10-30T14:35:54.885Z,70.27
2022-10-30T14:38:21.607Z,71.11
2022-10-30T14:40:47.893Z,71.32
2022-10-30T14:43:14.153Z,71.47
2022-10-30T14:45:40.409Z,71.61
2022-10-30T14:48:06.669Z,71.81
2022-10-30T14:50:32.948Z,72.55
2022-10-30T14:52:59.609Z,72.60
2022-10-30T14:55:26.083Z,72.56
2022-10-30T14:57:52.417Z,72.75
2022-10-30T15:00:18.806Z,73.05
2022-10-30T15:02:45.165Z,73.61
2022-10-30T15:05:12.734Z,73.64
2022-10-30T15:07:39.127Z,73.68
2022-10-30T15:10:05.473Z,74.16
2022-10-30T15:12:31.743Z,74.11
2022-10-30T15:14:58.013Z,74.35
2022-10-30T15:17:24.290Z,74.81
2022-10-30T15:19:50.571Z,75.01
2022-10-30T15:22:16.829Z,75.48
2022-10-30T15:24:43.082Z,75.39
2022-10-30T15:27:09.354Z,75.58
2022-10-30T15:29:35.674Z,75.95
2022-10-30T15:32:02.099Z,76.14
2022-10-30T15:34:28.408Z,76.43
2022-10-30T15:36:54.954Z,76.58
2022-10-30T15:39:21.222Z,76.84
2022-10-30T15:41:47.513Z,77.27
2022-10-30T15:44:13.828Z,77.22
2022-10-30T15:46:40.263Z,77.42
2022-10-30T15:49:06.532Z,77.44
2022-10-30T15:51:34.198Z,77.55
2022-10-30T15:54:00.499Z,77.44
2022-10-30T15:56:26.767Z,77.36
2022-10-30T15:58:57.839Z,77.47
2022-10-30T16:01:24.211Z,77.82
2022-10-30T16:03:50.613Z,78.02
2022-10-30T16:06:17.116Z,78.15
2022-10-30T16:08:43.417Z,78.01
2022-10-30T16:11:09.685Z,78.34
2022-10-30T16:13:35.933Z,78.46
2022-10-30T16:16:02.238Z,78.36
2022-10-30T16:18:28.592Z,78.67
2022-10-30T16:20:54.893Z,78.76
2022-10-30T16:23:21.528Z,79.08
2022-10-30T16:25:47.810Z,79.11
2022-10-30T16:28:14.063Z,79.11
2022-10-30T16:30:40.334Z,79.56
2022-10-30T16:33:06.596Z,79.70
2022-10-30T16:35:32.869Z,80.15
2022-10-30T16:38:02.529Z,80.21
2022-10-30T16:40:28.849Z,80.25
2022-10-30T16:42:55.219Z,80.37
2022-10-30T16:45:21.481Z,80.43
2022-10-30T16:47:47.789Z,80.59
2022-10-30T16:50:14.078Z,80.79
2022-10-30T16:52:40.350Z,80.87
2022-10-30T16:55:06.632Z,81.12
2022-10-30T16:57:32.912Z,81.34
2022-10-30T16:59:59.209Z,81.19
2022-10-30T17:02:25.520Z,81.51
2022-10-30T17:04:55.343Z,81.62
2022-10-30T17:07:24.233Z,81.84
2022-10-30T17:09:55.823Z,82.03
2022-10-30T17:12:22.088Z,81.80
2022-10-30T17:14:48.395Z,81.95
2022-10-30T17:17:14.662Z,82.01
2022-10-30T17:19:40.956Z,82.03
2022-10-30T17:22:07.206Z,82.33
2022-10-30T17:24:33.467Z,82.68
2022-10-30T17:26:59.721Z,82.79
2022-10-30T17:29:26.128Z,82.75
2022-10-30T17:31:52.393Z,82.84
2022-10-30T17:34:18.700Z,83.01
2022-10-30T17:36:45.020Z,83.08
2022-10-30T17:39:11.363Z,83.69
2022-10-30T17:41:37.812Z,84.02
2022-10-30T17:44:04.118Z,84.15
2022-10-30T17:46:30.393Z,84.24
2022-10-30T17:48:56.940Z,84.16
2022-10-30T17:51:23.218Z,84.10
2022-10-30T17:53:49.542Z,84.21
2022-10-30T17:56:15.815Z,84.35
2022-10-30T17:58:42.108Z,84.34
2022-10-30T18:01:08.387Z,84.44
2022-10-30T18:03:34.700Z,84.46
2022-10-30T18:06:01.188Z,84.90
2022-10-30T18:08:27.489Z,84.63
2022-10-30T18:10:53.762Z,84.42
2022-10-30T18:13:20.036Z,84.50
2022-10-30T18:15:46.309Z,84.50
2022-10-30T18:18:12.863Z,84.54
2022-10-30T18:20:39.141Z,84.80
2022-10-30T18:23:05.539Z,84.78
2022-10-30T18:25:31.876Z,84.94
2022-10-30T18:27:58.441Z,85.09
2022-10-30T18:30:24.709Z,85.24
2022-10-30T18:32:51.000Z,85.52
2022-10-30T18:35:17.274Z,85.52
2022-10-30T18:37:43.537Z,86.07
2022-10-30T18:40:09.804Z,85.89
2022-10-30T18:42:36.057Z,85.88
2022-10-30T18:45:02.330Z,85.63
2022-10-30T18:47:28.581Z,85.93
2022-10-30T18:49:56.563Z,86.21
2022-10-30T18:52:22.729Z,86.35
2022-10-30T18:54:49.027Z,86.32
2022-10-30T18:57:15.280Z,86.05
2022-10-30T18:59:41.541Z,86.29
2022-10-30T19:02:07.922Z,86.53
2022-10-30T19:04:34.315Z,86.74
2022-10-30T19:07:02.065Z,86.79
2022-10-30T19:09:29.318Z,86.66
2022-10-30T19:11:55.597Z,86.88
2022-10-30T19:14:21.862Z,86.78
2022-10-30T19:16:48.130Z,86.71
2022-10-30T19:19:14.857Z,86.58
2022-10-30T19:21:41.116Z,87.05
2022-10-30T19:24:07.416Z,87.04
2022-10-30T19:26:34.156Z,87.09
2022-10-30T19:29:00.415Z,87.13
2022-10-30T19:31:26.695Z,87.35
2022-10-30T19:33:57.465Z,87.34
2022-10-30T19:36:23.993Z,87.36
2022-10-30T19:38:50.253Z,87.59
2022-10-30T19:41:16.661Z,87.45
2022-10-30T19:43:42.949Z,87.66
2022-10-30T19:46:09.209Z,87.44
2022-10-30T19:51:21.759Z,87.27
2022-10-30T19:53:48.143Z,87.23
2022-10-30T19:56:14.431Z,87.46
2022-10-30T19:58:40.689Z,87.74
2022-10-30T20:01:07.019Z,88.44
2022-10-30T20:03:33.403Z,89.17
2022-10-30T20:05:59.777Z,88.95
2022-10-30T20:08:26.091Z,88.83
2022-10-30T20:10:52.364Z,89.50
2022-10-30T20:13:18.743Z,89.04
2022-10-30T20:15:45.039Z,89.55
2022-10-30T20:18:11.315Z,89.18
2022-10-30T20:20:37.873Z,89.32
2022-10-30T20:23:04.126Z,89.29
2022-10-30T20:25:30.391Z,89.63
2022-10-30T20:27:57.950Z,90.14
2022-10-30T20:30:27.001Z,89.86
2022-10-30T20:32:53.260Z,90.11
2022-10-30T20:35:19.512Z,90.19
2022-10-30T20:37:45.774Z,90.18
2022-10-30T20:40:12.026Z,89.88
2022-10-30T20:42:38.378Z,90.94
2022-10-30T20:45:04.668Z,90.31
2022-10-30T20:47:30.950Z,90.23
2022-10-30T20:49:57.219Z,89.77
2022-10-30T20:52:23.490Z,90.20
2022-10-30T20:54:49.800Z,89.84
2022-10-30T20:57:16.103Z,89.74
2022-10-30T20:59:42.364Z,89.77
2022-10-30T21:02:08.825Z,89.89
2022-10-30T21:04:35.143Z,90.04
2022-10-30T21:07:01.421Z,89.93
2022-10-30T21:09:27.692Z,90.10
2022-10-30T21:11:55.878Z,91.71
2022-10-30T21:14:22.147Z,91.13
2022-10-30T21:16:52.993Z,90.69
2022-10-30T21:19:19.246Z,90.63
2022-10-30T21:21:45.566Z,91.16
2022-10-30T21:24:11.824Z,90.72
2022-10-30T21:26:38.084Z,90.33
2022-10-30T21:29:04.885Z,90.51
2022-10-30T21:31:31.133Z,91.03
2022-10-30T21:33:57.396Z,91.21
2022-10-30T21:36:24.650Z,91.08
2022-10-30T21:38:50.907Z,90.68
2022-10-30T21:41:17.205Z,91.04
2022-10-30T21:43:43.455Z,91.37
2022-10-30T22:00:41.282Z,92.55
2022-10-30T22:03:07.599Z,92.74
2022-10-30T22:05:33.856Z,92.92
2022-10-30T22:08:00.340Z,92.31
2022-10-30T22:10:26.989Z,92.54
2022-10-30T22:12:53.270Z,92.44
2022-10-30T22:15:19.522Z,92.44
2022-10-30T22:17:45.765Z,92.15
2022-10-30T22:20:12.079Z,92.08
2022-10-30T22:22:38.369Z,91.91
2022-10-30T22:25:04.742Z,91.65
2022-10-30T22:27:30.993Z,91.57
2022-10-30T22:29:57.252Z,91.95
2022-10-30T22:32:23.557Z,91.96
2022-10-30T22:34:49.899Z,91.79
2022-10-30T22:37:16.166Z,91.73
2022-10-30T22:39:42.418Z,92.12
2022-10-30T22:42:08.718Z,92.66
2022-10-30T22:44:34.981Z,92.01
2022-10-30T22:47:01.254Z,91.58
2022-10-30T22:49:27.522Z,91.13
2022-10-30T22:51:53.785Z,90.78
2022-10-30T22:54:20.048Z,90.68
2022-10-30T22:56:46.314Z,90.54
2022-10-30T22:59:12.584Z,91.10
2022-10-30T23:01:38.978Z,91.77
2022-10-30T23:04:05.297Z,91.66
2022-10-30T23:06:31.567Z,91.41
2022-10-30T23:08:57.826Z,91.13
2022-10-30T23:11:24.123Z,92.20
2022-10-30T23:13:50.389Z,92.38
2022-10-30T23:16:16.657Z,92.54
2022-10-30T23:18:42.914Z,94.93
2022-10-30T23:21:09.178Z,96.10
2022-10-30T23:23:35.891Z,95.17
2022-10-30T23:26:02.145Z,94.31
2022-10-30T23:28:28.452Z,93.73
2022-10-30T23:30:54.713Z,94.15
2022-10-30T23:33:20.967Z,94.64
2022-10-30T23:35:47.235Z,94.30
2022-10-30T23:38:13.553Z,92.98
2022-10-30T23:40:39.797Z,92.29
2022-10-30T23:43:06.265Z,92.48
2022-10-30T23:45:32.599Z,93.82
2022-10-30T23:47:59.101Z,93.92
2022-10-30T23:50:25.497Z,92.39
2022-10-30T23:52:51.749Z,94.52
2022-10-30T23:55:18.012Z,93.75
2022-10-30T23:57:44.757Z,92.90
